YME weather

Matane Airport
Matane, Quebec, Canada

Public forecast

Using degrees Celsius for public forecast. Weather courtesy of forecast.io.

Closest aviation weather report (METAR) to Matane Airport

Closest report is Mont Joli Airport, 33.4 nm (61.9 km) WSW. Retrieved 2020/06/04 13:00 UTC (58 minutes ago):

CYYY 041300Z 22013G20KT 30SM BKN079 14/03 A2958 RMK AC7 SLP019 DENSITY ALT 500FT

Closest aviation forecast (TAF) to Matane Airport

Closest forecast is Mont Joli Airport, 33.4 nm (61.9 km) WSW. Retrieved 2020/06/04 14:00 UTC (0 seconds ago):

TAF CYYY 041339Z 0414/0502 22015G25KT P6SM BKN080 BECMG 0422/0424 22012G22KT RMK NXT FCST BY 042000Z